N604EX CZBB-PANC
Flight info
| Callsign | N604EX |
|---|---|
| Flight time | N/A |
| Altitude | 38000 |
| Route | ARRUE Q902 YZT J523 YZP Q801 MOCKA J501 EEVER Q801 JOH PTERS3 |
| Aircraft | CL60/M-SBDE2E3FGHIJ3J4J7P2RWXYZ/LB1D1 |
Departure
| Time | 2026-04-24 00:57 |
|---|---|
| Airport | Boundary Bay Airport (CZBB) |
Arrival
| Time | N/A |
|---|---|
| Airport | Ted Stevens Anchorage International Airport (PANC) |
| Time | Latitude | Longitude | Altitude | Speed | Heading |
|---|---|---|---|---|---|
| 2026-04-24 00:23 | 49.08026 | -123.00839 | 11 ft | 0 kts | 269° |
| 2026-04-24 00:53 | 49.08026 | -123.00840 | 10 ft | 0 kts | 269° |
| 2026-04-24 00:53 | 49.08020 | -123.00871 | 10 ft | 4 kts | 219° |
| 2026-04-24 00:53 | 49.07977 | -123.00870 | 10 ft | 8 kts | 153° |
| 2026-04-24 00:53 | 49.07942 | -123.00792 | 10 ft | 10 kts | 90° |
| 2026-04-24 00:54 | 49.07941 | -123.00655 | 10 ft | 15 kts | 90° |
| 2026-04-24 00:54 | 49.07941 | -123.00485 | 10 ft | 16 kts | 90° |
| 2026-04-24 00:54 | 49.07940 | -123.00298 | 11 ft | 18 kts | 91° |
| 2026-04-24 00:54 | 49.07940 | -123.00088 | 11 ft | 14 kts | 90° |
| 2026-04-24 00:55 | 49.07939 | -122.99985 | 10 ft | 10 kts | 91° |
| 2026-04-24 00:55 | 49.07939 | -122.99854 | 11 ft | 13 kts | 90° |
| 2026-04-24 00:55 | 49.07932 | -122.99709 | 10 ft | 13 kts | 111° |
| 2026-04-24 00:55 | 49.07875 | -122.99579 | 10 ft | 16 kts | 135° |
| 2026-04-24 00:56 | 49.07816 | -122.99469 | 10 ft | 9 kts | 118° |
| 2026-04-24 00:56 | 49.07786 | -122.99447 | 10 ft | 4 kts | 242° |
| 2026-04-24 00:56 | 49.07785 | -122.99471 | 10 ft | 0 kts | 270° |
| 2026-04-24 00:56 | 49.07785 | -122.99489 | 10 ft | 14 kts | 271° |
| 2026-04-24 00:57 | 49.07789 | -123.00161 | 11 ft | 114 kts | 270° |
| 2026-04-24 00:57 | 49.07798 | -123.01756 | 197 ft | 174 kts | 270° |
| 2026-04-24 00:57 | 49.07768 | -123.05609 | 1598 ft | 198 kts | 268° |
| 2026-04-24 00:58 | 49.07725 | -123.07788 | 2463 ft | 216 kts | 268° |
| 2026-04-24 00:58 | 49.07658 | -123.10137 | 3414 ft | 234 kts | 268° |
| 2026-04-24 00:58 | 49.07570 | -123.12753 | 4198 ft | 257 kts | 269° |
| 2026-04-24 00:58 | 49.07550 | -123.15489 | 5069 ft | 263 kts | 273° |
| 2026-04-24 00:59 | 49.07583 | -123.18306 | 5979 ft | 267 kts | 274° |
| 2026-04-24 00:59 | 49.07613 | -123.21136 | 6908 ft | 271 kts | 274° |
| 2026-04-24 00:59 | 49.07639 | -123.24001 | 7852 ft | 275 kts | 275° |
| 2026-04-24 00:59 | 49.07653 | -123.26933 | 8825 ft | 279 kts | 275° |
| 2026-04-24 01:00 | 49.07663 | -123.29884 | 9777 ft | 283 kts | 275° |
| 2026-04-24 01:00 | 49.07672 | -123.32904 | 10715 ft | 294 kts | 276° |
| 2026-04-24 01:00 | 49.07685 | -123.36142 | 11334 ft | 320 kts | 276° |
| 2026-04-24 01:00 | 49.07765 | -123.39672 | 12084 ft | 337 kts | 285° |
| 2026-04-24 01:01 | 49.08544 | -123.43008 | 12875 ft | 340 kts | 302° |
| 2026-04-24 01:01 | 49.09573 | -123.46218 | 14017 ft | 342 kts | 302° |
| 2026-04-24 01:01 | 49.10591 | -123.49491 | 15138 ft | 344 kts | 302° |
| 2026-04-24 01:01 | 49.11618 | -123.52816 | 16165 ft | 348 kts | 302° |
| 2026-04-24 01:02 | 49.12651 | -123.56166 | 17153 ft | 351 kts | 302° |
| 2026-04-24 01:02 | 49.13685 | -123.59525 | 18053 ft | 355 kts | 302° |
| 2026-04-24 01:02 | 49.14742 | -123.62966 | 18904 ft | 360 kts | 302° |
| 2026-04-24 01:02 | 49.15814 | -123.66462 | 19768 ft | 364 kts | 301° |
| 2026-04-24 01:03 | 49.16902 | -123.70015 | 20527 ft | 371 kts | 301° |
| 2026-04-24 01:03 | 49.17994 | -123.73591 | 21338 ft | 375 kts | 301° |
| 2026-04-24 01:03 | 49.19093 | -123.77195 | 22087 ft | 379 kts | 301° |
| 2026-04-24 01:03 | 49.20209 | -123.80866 | 22860 ft | 383 kts | 301° |
| 2026-04-24 01:04 | 49.21334 | -123.84569 | 23542 ft | 388 kts | 301° |
| 2026-04-24 01:04 | 49.22490 | -123.88382 | 24180 ft | 394 kts | 301° |
| 2026-04-24 01:04 | 49.23640 | -123.92181 | 24855 ft | 398 kts | 300° |
| 2026-04-24 01:04 | 49.24813 | -123.96069 | 25503 ft | 401 kts | 300° |
| 2026-04-24 01:05 | 49.25996 | -123.99989 | 26106 ft | 405 kts | 300° |
| 2026-04-24 01:05 | 49.27184 | -124.03936 | 26670 ft | 408 kts | 300° |
| 2026-04-24 01:05 | 49.28375 | -124.07900 | 27172 ft | 412 kts | 300° |
| 2026-04-24 01:05 | 49.29590 | -124.11954 | 27737 ft | 414 kts | 301° |
| 2026-04-24 01:06 | 49.30789 | -124.15958 | 28228 ft | 417 kts | 300° |
| 2026-04-24 01:06 | 49.32005 | -124.20026 | 28739 ft | 418 kts | 300° |
| 2026-04-24 01:06 | 49.33218 | -124.24091 | 29157 ft | 422 kts | 300° |
| 2026-04-24 01:06 | 49.34451 | -124.28231 | 29556 ft | 424 kts | 300° |
| 2026-04-24 01:07 | 49.35689 | -124.32393 | 29949 ft | 427 kts | 300° |
| 2026-04-24 01:07 | 49.36925 | -124.36557 | 30303 ft | 429 kts | 300° |
| 2026-04-24 01:07 | 49.38158 | -124.40720 | 30641 ft | 431 kts | 300° |
| 2026-04-24 01:07 | 49.39408 | -124.44946 | 30963 ft | 432 kts | 300° |
| 2026-04-24 01:08 | 49.40645 | -124.49136 | 31346 ft | 432 kts | 300° |
| 2026-04-24 01:08 | 49.41885 | -124.53346 | 31772 ft | 430 kts | 300° |
| 2026-04-24 01:08 | 49.43104 | -124.57494 | 32212 ft | 427 kts | 300° |
| 2026-04-24 01:08 | 49.44323 | -124.61646 | 32656 ft | 425 kts | 301° |
| 2026-04-24 01:09 | 49.45533 | -124.65778 | 33090 ft | 422 kts | 300° |
| 2026-04-24 01:09 | 49.46742 | -124.69908 | 33504 ft | 420 kts | 300° |
| 2026-04-24 01:09 | 49.47938 | -124.74000 | 33869 ft | 419 kts | 300° |
| 2026-04-24 01:09 | 49.49128 | -124.78078 | 34166 ft | 419 kts | 300° |
| 2026-04-24 01:10 | 49.50319 | -124.82169 | 34534 ft | 417 kts | 300° |
| 2026-04-24 01:10 | 49.51511 | -124.86269 | 34842 ft | 416 kts | 300° |
| 2026-04-24 01:10 | 49.52687 | -124.90318 | 35094 ft | 416 kts | 300° |
| 2026-04-24 01:10 | 49.53873 | -124.94408 | 35354 ft | 416 kts | 300° |
| 2026-04-24 01:11 | 49.55045 | -124.98457 | 35603 ft | 416 kts | 300° |
| 2026-04-24 01:11 | 49.56222 | -125.02532 | 35865 ft | 416 kts | 299° |
| 2026-04-24 01:11 | 49.57401 | -125.06621 | 36129 ft | 415 kts | 300° |
| 2026-04-24 01:11 | 49.58597 | -125.10677 | 36327 ft | 414 kts | 302° |
| 2026-04-24 01:12 | 49.60065 | -125.14420 | 36536 ft | 408 kts | 310° |
| 2026-04-24 01:12 | 49.61803 | -125.17889 | 36729 ft | 407 kts | 312° |
| 2026-04-24 01:12 | 49.63565 | -125.21351 | 37000 ft | 407 kts | 312° |
| 2026-04-24 01:12 | 49.65311 | -125.24792 | 37259 ft | 407 kts | 312° |
| 2026-04-24 01:13 | 49.67041 | -125.28209 | 37484 ft | 407 kts | 312° |
| 2026-04-24 01:13 | 49.68803 | -125.31692 | 37723 ft | 407 kts | 312° |
| 2026-04-24 01:13 | 49.70541 | -125.35132 | 37954 ft | 407 kts | 312° |
| 2026-04-24 01:13 | 49.72285 | -125.38588 | 38131 ft | 407 kts | 312° |
| 2026-04-24 01:14 | 49.74041 | -125.42070 | 38124 ft | 411 kts | 312° |
| 2026-04-24 01:14 | 49.77580 | -125.49105 | 38126 ft | 418 kts | 311° |
| 2026-04-24 01:15 | 49.81183 | -125.56286 | 38105 ft | 424 kts | 311° |
| 2026-04-24 01:15 | 49.84820 | -125.63558 | 38109 ft | 427 kts | 311° |
| 2026-04-24 01:16 | 49.88457 | -125.70851 | 38106 ft | 427 kts | 311° |
| 2026-04-24 01:16 | 49.92089 | -125.78155 | 38108 ft | 427 kts | 311° |
| 2026-04-24 01:17 | 49.95701 | -125.85437 | 38108 ft | 426 kts | 311° |
| 2026-04-24 01:17 | 49.99320 | -125.92754 | 38096 ft | 426 kts | 311° |
| 2026-04-24 01:18 | 50.02920 | -126.00053 | 38089 ft | 426 kts | 311° |
| 2026-04-24 01:18 | 50.06525 | -126.07382 | 38096 ft | 426 kts | 311° |
| 2026-04-24 01:19 | 50.10114 | -126.14699 | 38103 ft | 427 kts | 311° |
| 2026-04-24 01:19 | 50.13730 | -126.22091 | 38101 ft | 428 kts | 310° |
| 2026-04-24 01:20 | 50.17348 | -126.29507 | 38098 ft | 428 kts | 310° |
| 2026-04-24 01:20 | 50.20961 | -126.36937 | 38106 ft | 428 kts | 310° |
| 2026-04-24 01:21 | 50.24558 | -126.44353 | 38113 ft | 428 kts | 310° |
| 2026-04-24 01:21 | 50.28138 | -126.51755 | 38118 ft | 428 kts | 310° |
| 2026-04-24 01:22 | 50.31721 | -126.59184 | 38125 ft | 429 kts | 310° |
| 2026-04-24 01:22 | 50.35331 | -126.66688 | 38129 ft | 429 kts | 310° |
| 2026-04-24 01:23 | 50.38911 | -126.74153 | 38151 ft | 429 kts | 309° |
| 2026-04-24 01:23 | 50.42479 | -126.81613 | 38148 ft | 429 kts | 310° |
| 2026-04-24 01:24 | 50.46053 | -126.89108 | 38152 ft | 429 kts | 309° |
| 2026-04-24 01:24 | 50.49651 | -126.96675 | 38172 ft | 430 kts | 309° |
| 2026-04-24 01:25 | 50.53218 | -127.04198 | 38178 ft | 430 kts | 309° |
| 2026-04-24 01:25 | 50.56800 | -127.11774 | 38185 ft | 431 kts | 309° |
| 2026-04-24 01:26 | 50.60367 | -127.19339 | 38184 ft | 432 kts | 309° |
| 2026-04-24 01:26 | 50.63950 | -127.26962 | 38196 ft | 432 kts | 309° |
| 2026-04-24 01:27 | 50.67521 | -127.34580 | 38204 ft | 432 kts | 309° |
| 2026-04-24 01:27 | 50.71535 | -127.41543 | 38208 ft | 429 kts | 317° |
| 2026-04-24 01:28 | 50.75773 | -127.48247 | 38207 ft | 429 kts | 317° |
| 2026-04-24 01:28 | 50.79973 | -127.54923 | 38209 ft | 430 kts | 317° |
| 2026-04-24 01:29 | 50.84184 | -127.61636 | 38204 ft | 429 kts | 317° |
| 2026-04-24 01:29 | 50.88375 | -127.68338 | 38199 ft | 430 kts | 316° |
| 2026-04-24 01:30 | 50.92588 | -127.75096 | 38203 ft | 431 kts | 316° |
| 2026-04-24 01:30 | 50.96805 | -127.81881 | 38206 ft | 431 kts | 316° |
| 2026-04-24 01:31 | 51.01001 | -127.88652 | 38213 ft | 431 kts | 316° |
| 2026-04-24 01:31 | 51.05195 | -127.95440 | 38212 ft | 430 kts | 316° |
| 2026-04-24 01:32 | 51.09387 | -128.02243 | 38212 ft | 431 kts | 316° |
| 2026-04-24 01:32 | 51.13585 | -128.09074 | 38217 ft | 432 kts | 316° |
| 2026-04-24 01:33 | 51.17814 | -128.15977 | 38218 ft | 433 kts | 316° |
| 2026-04-24 01:33 | 51.22012 | -128.22847 | 38216 ft | 433 kts | 316° |
| 2026-04-24 01:34 | 51.26221 | -128.29756 | 38218 ft | 433 kts | 316° |
| 2026-04-24 01:34 | 51.30413 | -128.36658 | 38212 ft | 433 kts | 316° |
| 2026-04-24 01:35 | 51.34585 | -128.43543 | 38214 ft | 433 kts | 316° |
| 2026-04-24 01:35 | 51.38788 | -128.50501 | 38219 ft | 433 kts | 316° |
| 2026-04-24 01:36 | 51.42956 | -128.57419 | 38220 ft | 434 kts | 316° |
| 2026-04-24 01:36 | 51.47174 | -128.64442 | 38220 ft | 434 kts | 316° |
| 2026-04-24 01:37 | 51.51353 | -128.71419 | 38230 ft | 435 kts | 315° |
| 2026-04-24 01:37 | 51.55568 | -128.78474 | 38229 ft | 435 kts | 315° |
| 2026-04-24 01:38 | 51.59738 | -128.85477 | 38232 ft | 435 kts | 315° |
| 2026-04-24 01:38 | 51.63946 | -128.92561 | 38235 ft | 435 kts | 315° |
| 2026-04-24 01:39 | 51.68106 | -128.99587 | 38237 ft | 436 kts | 315° |
| 2026-04-24 01:39 | 51.72303 | -129.06692 | 38233 ft | 437 kts | 315° |
| 2026-04-24 01:40 | 51.76486 | -129.13798 | 38244 ft | 437 kts | 315° |
| 2026-04-24 01:40 | 51.80683 | -129.20947 | 38256 ft | 437 kts | 314° |
| 2026-04-24 01:41 | 51.84858 | -129.28078 | 38253 ft | 437 kts | 315° |
| 2026-04-24 01:41 | 51.89011 | -129.35193 | 38263 ft | 438 kts | 314° |
| 2026-04-24 01:42 | 51.93184 | -129.42362 | 38262 ft | 438 kts | 314° |
| 2026-04-24 01:42 | 51.97371 | -129.49576 | 38269 ft | 438 kts | 314° |
| 2026-04-24 01:43 | 52.01535 | -129.56772 | 38278 ft | 438 kts | 314° |
| 2026-04-24 01:43 | 52.05683 | -129.63962 | 38270 ft | 438 kts | 314° |
| 2026-04-24 01:44 | 52.09842 | -129.71191 | 38281 ft | 438 kts | 314° |
| 2026-04-24 01:44 | 52.14027 | -129.78488 | 38285 ft | 439 kts | 314° |
| 2026-04-24 01:45 | 52.18181 | -129.85751 | 38283 ft | 439 kts | 314° |
| 2026-04-24 01:45 | 52.22362 | -129.93083 | 38287 ft | 439 kts | 314° |
| 2026-04-24 01:46 | 52.26511 | -130.00380 | 38295 ft | 440 kts | 314° |
| 2026-04-24 01:46 | 52.30665 | -130.07710 | 38297 ft | 440 kts | 313° |
| 2026-04-24 01:47 | 52.34808 | -130.15042 | 38307 ft | 440 kts | 313° |
| 2026-04-24 01:47 | 52.38981 | -130.22447 | 38300 ft | 441 kts | 313° |
| 2026-04-24 01:48 | 52.43144 | -130.29857 | 38305 ft | 441 kts | 313° |
| 2026-04-24 01:48 | 52.47299 | -130.37276 | 38313 ft | 442 kts | 313° |
| 2026-04-24 01:49 | 52.51482 | -130.44766 | 38318 ft | 442 kts | 313° |
| 2026-04-24 01:49 | 52.55629 | -130.52217 | 38315 ft | 443 kts | 313° |
| 2026-04-24 01:50 | 52.59802 | -130.59737 | 38321 ft | 443 kts | 313° |
| 2026-04-24 01:50 | 52.63982 | -130.67290 | 38321 ft | 444 kts | 312° |
| 2026-04-24 01:51 | 52.68157 | -130.74858 | 38320 ft | 444 kts | 313° |
| 2026-04-24 01:51 | 52.72311 | -130.82411 | 38318 ft | 445 kts | 313° |
| 2026-04-24 01:52 | 52.76480 | -130.90016 | 38330 ft | 445 kts | 313° |
| 2026-04-24 01:52 | 52.80641 | -130.97629 | 38322 ft | 446 kts | 313° |
| 2026-04-24 01:53 | 52.84786 | -131.05237 | 38339 ft | 446 kts | 313° |
| 2026-04-24 01:53 | 52.88971 | -131.12939 | 38343 ft | 447 kts | 312° |